الصفحة الرئيسية
METAR-TAF:

METAR-TAF

مطار :

La Ceiba, هندوراس

دائرة عرض: 15-44N, خط طول: 086-52W, ارتفاع: 3 متر

مراقبة الطقس الحالي

تاريخ ووقت الإصدار 46 دقيقة قبل الساعة 04:00UTC
رياح هادئة
درجة الحرارة 23°درجة مئوية
الرطوبة 100%
ضغط 1014 hPa
الرؤية 10 كم أو أكثر
غيوم قليلة على ارتفاع 2500 قدم
غيوم مفككة على ارتفاع 8000 قدم

METAR: MHLC 140400Z 00000KT 9999 FEW025 BKN080 23/23 Q1014 A2995 NOSIG

زمن: 22:46 (04:46 UTC)

توقعات

تاريخ ووقت الإصدار 6ساعات و 1 دقيقة قبل الساعة 22:45UTC
التوقعات صالحة من14 الساعة 00 UTC إلى 14 الساعة 24 UTC
ريح 5 عقدة من الجنوب
الرؤية 10 كم أو أكثر
غيوم متفرقة على ارتفاع 2200 قدم
غيوم متفرقة على ارتفاع 8000 قدم
مؤقت
من 14 الساعة 06 UTC إلى 14 الساعة 10 UTC
الرؤية: 8000 متر
زخات في الجوار
أصبح
من 14 الساعة 14 UTC إلى 14 الساعة 16 UTC
ريح 5 عقدة من الشمال الغربي
أصبح
من 14 الساعة 20 UTC إلى 14 الساعة 22 UTC
غيوم متفرقة على ارتفاع 2600 قدم, مزن ركامية عمودية.

TAF: MHLC 132245Z 1400/1424 17005KT 9999 SCT022 SCT080 TX30/1419Z TX21/1412Z PR0B30 TEMPO 1406/1410 8000 VCSH BECMG 1414/1416 32005KT BECMG 1420/1422 SCT026TCU

أرصاد الطقس والتوقعات من أكثر من 4000 مطار (تقارير الطقس للمطار METAR والتنبؤ بالطقس بالمطارTAF).

المحطات المتاحة هي النقط الصفراء والحمراء على الخريطة.

حرك المؤشر فوق النقطة لمعرفة اسم المحطة.

ثم انقر لمعرفة أرصاد وتوقعات الطقس.

لتغيير الخارطة: اضغط على الأزرار الخضراء مع رمز الصليب الأسود للتكبير. على الزر الأخضر مع شرطة للتصغير، أو على الأسهم الخضراء للخرائط المجاورة.


METAR-TAF: